createdAt,value
2017-06-21T00:00:53.407Z,27.94
2017-06-21T00:02:03.774Z,27.96
2017-06-21T00:03:14.125Z,27.98
2017-06-21T00:04:24.514Z,27.84
2017-06-21T00:05:34.244Z,27.98
2017-06-21T00:06:44.596Z,27.94
2017-06-21T00:07:54.947Z,27.94
2017-06-21T00:09:05.311Z,27.87
2017-06-21T00:10:15.789Z,27.87
2017-06-21T00:11:25.815Z,27.89
2017-06-21T00:12:36.192Z,27.9
2017-06-21T00:13:46.228Z,27.84
2017-06-21T00:14:56.320Z,27.84
2017-06-21T00:16:06.720Z,27.75
2017-06-21T00:17:17.081Z,27.75
2017-06-21T00:18:27.176Z,27.74
2017-06-21T00:19:37.527Z,27.75
2017-06-21T00:20:47.573Z,27.69
2017-06-21T00:21:58.016Z,27.65
2017-06-21T00:23:08.063Z,27.61
2017-06-21T00:24:18.418Z,27.69
2017-06-21T00:25:28.765Z,27.66
2017-06-21T00:26:39.120Z,27.57
2017-06-21T00:27:48.836Z,27.62
2017-06-21T00:28:58.864Z,27.55
2017-06-21T00:30:09.219Z,27.61
2017-06-21T00:31:18.943Z,27.53
2017-06-21T00:32:29.309Z,27.46
2017-06-21T00:33:39.345Z,27.53
2017-06-21T00:34:49.694Z,27.46
2017-06-21T00:36:00.045Z,27.42
2017-06-21T00:37:10.415Z,27.36
2017-06-21T00:38:20.798Z,27.38
2017-06-21T00:39:31.172Z,27.34
2017-06-21T00:40:40.933Z,27.33
2017-06-21T00:41:51.302Z,27.3
2017-06-21T00:43:01.334Z,27.24
2017-06-21T00:44:11.694Z,27.24
2017-06-21T00:45:22.037Z,27.24
2017-06-21T00:46:32.083Z,27.15
2017-06-21T00:47:42.452Z,27.12
2017-06-21T00:48:52.816Z,27.13
2017-06-21T00:50:02.835Z,27.08
2017-06-21T00:51:13.231Z,27.11
2017-06-21T00:52:22.689Z,27.05
2017-06-21T00:53:32.731Z,27
2017-06-21T00:54:42.779Z,27.12
2017-06-21T00:55:52.836Z,27.01
2017-06-21T00:57:02.870Z,27.06
2017-06-21T00:58:13.232Z,26.97
2017-06-21T00:59:23.273Z,27
2017-06-21T01:00:33.620Z,26.94
2017-06-21T01:01:43.954Z,26.94
2017-06-21T01:02:54.348Z,26.96
2017-06-21T01:04:04.398Z,26.99
2017-06-21T01:05:14.765Z,26.96
2017-06-21T01:06:25.119Z,26.89
2017-06-21T01:07:35.455Z,27
2017-06-21T01:08:45.811Z,27.06
2017-06-21T01:09:55.539Z,26.89
2017-06-21T01:11:05.892Z,26.91
2017-06-21T01:12:15.944Z,26.96
2017-06-21T01:13:26.305Z,26.96
2017-06-21T01:14:36.683Z,27
2017-06-21T01:15:47.023Z,26.99
2017-06-21T01:16:56.759Z,26.96
2017-06-21T01:18:07.112Z,26.87
2017-06-21T01:19:17.469Z,26.94
2017-06-21T01:20:27.875Z,26.93
2017-06-21T01:21:38.227Z,26.96
2017-06-21T01:22:48.589Z,26.96
2017-06-21T01:23:58.645Z,26.96
2017-06-21T01:25:08.387Z,26.93
2017-06-21T01:26:18.726Z,26.93
2017-06-21T01:27:29.092Z,26.86
2017-06-21T01:28:39.127Z,26.89
2017-06-21T01:29:48.866Z,26.84
2017-06-21T01:30:59.225Z,26.82
2017-06-21T01:32:09.624Z,26.76
2017-06-21T01:33:19.970Z,26.75
2017-06-21T01:34:30.322Z,26.72
2017-06-21T01:35:40.356Z,26.68
2017-06-21T01:36:50.726Z,26.71
2017-06-21T01:38:00.812Z,26.68
2017-06-21T01:39:11.163Z,26.63
2017-06-21T01:40:21.200Z,26.61
2017-06-21T01:41:31.253Z,26.63
2017-06-21T01:42:41.291Z,26.64
2017-06-21T01:43:51.654Z,26.59
2017-06-21T01:45:02.005Z,26.54
2017-06-21T01:46:12.353Z,26.53
2017-06-21T01:47:22.391Z,26.61
2017-06-21T01:48:32.427Z,26.56
2017-06-21T01:49:42.203Z,26.44
2017-06-21T01:50:52.547Z,26.47
2017-06-21T01:52:02.892Z,26.45
2017-06-21T01:53:13.235Z,26.42
2017-06-21T01:54:23.576Z,26.45
2017-06-21T01:55:33.662Z,26.44
2017-06-21T01:56:43.705Z,26.45
2017-06-21T01:57:53.742Z,26.32
2017-06-21T01:59:03.468Z,26.3
2017-06-21T02:00:13.510Z,26.32
2017-06-21T02:01:23.612Z,26.35
2017-06-21T02:02:33.976Z,26.27
2017-06-21T02:03:44.320Z,26.3
2017-06-21T02:04:54.667Z,26.3
2017-06-21T02:06:04.728Z,26.31
2017-06-21T02:07:14.191Z,26.31
2017-06-21T02:08:24.547Z,26.32
2017-06-21T02:09:34.899Z,26.31
2017-06-21T02:10:45.241Z,26.3
2017-06-21T02:11:55.267Z,26.26
2017-06-21T02:13:05.760Z,26.24
2017-06-21T02:14:15.804Z,26.23
2017-06-21T02:15:25.839Z,26.12
2017-06-21T02:16:35.916Z,26.16
2017-06-21T02:17:45.962Z,26.2
2017-06-21T02:18:56.038Z,26.16
2017-06-21T02:20:06.384Z,26.17
2017-06-21T02:21:16.737Z,26.09
2017-06-21T02:22:27.088Z,26.06
2017-06-21T02:23:37.470Z,26
2017-06-21T02:24:47.543Z,26.01
2017-06-21T02:25:57.885Z,26.01
2017-06-21T02:27:08.245Z,26
2017-06-21T02:28:18.276Z,25.99
2017-06-21T02:29:28.623Z,25.96
2017-06-21T02:30:39.015Z,25.97
2017-06-21T02:31:49.068Z,25.96
2017-06-21T02:32:59.419Z,25.91
2017-06-21T02:34:09.453Z,25.93
2017-06-21T02:35:19.494Z,25.96
2017-06-21T02:36:29.844Z,25.86
2017-06-21T02:37:39.873Z,25.99
2017-06-21T02:38:50.240Z,25.96
2017-06-21T02:40:00.620Z,25.93
2017-06-21T02:41:10.661Z,25.86
2017-06-21T02:42:21.014Z,25.93
2017-06-21T02:43:31.368Z,25.94
2017-06-21T02:44:41.709Z,25.99
2017-06-21T02:45:51.753Z,25.97
2017-06-21T02:47:01.786Z,25.89
2017-06-21T02:48:11.874Z,25.89
2017-06-21T02:49:22.230Z,25.86
2017-06-21T02:50:32.260Z,25.93
2017-06-21T02:51:42.608Z,25.89
2017-06-21T02:52:52.954Z,25.91
2017-06-21T02:54:02.980Z,25.93
2017-06-21T02:55:13.331Z,25.97
2017-06-21T02:56:23.689Z,25.88
2017-06-21T02:57:34.036Z,25.91
2017-06-21T02:58:44.378Z,25.96
2017-06-21T02:59:54.785Z,25.94
2017-06-21T03:01:05.133Z,25.86
2017-06-21T03:33:13.185Z,23.81
2017-06-21T03:34:23.217Z,23.77
2017-06-21T03:35:33.571Z,23.78
2017-06-21T03:36:43.909Z,23.75
2017-06-21T03:37:54.272Z,23.82
2017-06-21T03:39:04.674Z,23.82
2017-06-21T03:40:14.722Z,23.97
2017-06-21T03:41:24.758Z,24.07
2017-06-21T03:42:35.100Z,24.32
2017-06-21T03:43:45.469Z,24.4
2017-06-21T03:44:55.865Z,24.59
2017-06-21T03:46:05.926Z,24.75
2017-06-21T03:47:16.305Z,24.86
2017-06-21T03:48:26.674Z,24.89
2017-06-21T03:49:37.037Z,25.11
2017-06-21T03:50:47.485Z,25.3
2017-06-21T03:51:57.849Z,25.52
2017-06-21T03:53:07.898Z,25.71
2017-06-21T03:54:17.954Z,25.96
2017-06-21T03:55:28.329Z,25.86
2017-06-21T03:56:38.743Z,25.99
2017-06-21T03:57:49.082Z,26.03
2017-06-21T03:58:59.424Z,26.15
2017-06-21T04:00:09.796Z,26.23
2017-06-21T04:01:20.158Z,26.3
2017-06-21T04:02:30.498Z,26.3
2017-06-21T04:03:40.855Z,26.44
2017-06-21T04:04:51.202Z,26.39
2017-06-21T04:06:01.547Z,26.49
2017-06-21T04:07:11.912Z,26.57
2017-06-21T04:08:21.625Z,26.59
2017-06-21T04:09:31.340Z,26.67
2017-06-21T04:10:41.691Z,26.71
2017-06-21T04:11:52.037Z,26.74
2017-06-21T04:13:02.387Z,26.81
2017-06-21T04:14:12.803Z,26.75
2017-06-21T04:15:23.171Z,26.93
2017-06-21T04:16:33.530Z,27.01
2017-06-21T04:17:43.579Z,26.97
2017-06-21T04:18:53.003Z,27.46
2017-06-21T04:20:03.405Z,28.8
2017-06-21T04:21:13.758Z,30.03
2017-06-21T04:22:24.111Z,31.06
2017-06-21T04:23:34.161Z,31.72
2017-06-21T04:24:44.516Z,32.2
2017-06-21T04:25:54.905Z,32.65
2017-06-21T04:27:04.633Z,33.17
2017-06-21T04:28:14.997Z,33.47
2017-06-21T04:29:25.354Z,33.73
2017-06-21T04:30:35.396Z,33.96
2017-06-21T04:31:45.793Z,34.1
2017-06-21T04:32:56.152Z,34.37
2017-06-21T04:34:06.224Z,34.49
2017-06-21T04:35:16.269Z,34.74
2017-06-21T04:36:26.308Z,34.96
2017-06-21T04:37:36.033Z,35.04
2017-06-21T04:38:46.383Z,35.24
2017-06-21T04:39:56.421Z,35.3
2017-06-21T04:41:06.783Z,35.4
2017-06-21T04:42:16.816Z,35.55
2017-06-21T04:43:26.917Z,35.58
2017-06-21T04:44:37.301Z,35.8
2017-06-21T04:45:47.660Z,35.99
2017-06-21T04:46:57.694Z,36.01
2017-06-21T04:48:07.741Z,36.09
2017-06-21T04:49:18.136Z,36.05
2017-06-21T04:50:28.482Z,35.92
2017-06-21T04:51:38.853Z,35.76
2017-06-21T04:52:48.887Z,35.94
2017-06-21T04:53:59.248Z,36.08
2017-06-21T04:55:09.643Z,36.21
2017-06-21T04:56:19.372Z,36.25
2017-06-21T04:57:29.731Z,36.3
2017-06-21T04:58:40.086Z,36.46
2017-06-21T04:59:50.435Z,36.46
2017-06-21T05:01:00.862Z,36.59
2017-06-21T05:02:11.228Z,36.62
2017-06-21T05:03:21.596Z,36.47
2017-06-21T05:04:31.973Z,36.19
2017-06-21T05:05:42.329Z,36.33
2017-06-21T05:06:52.741Z,36.44
2017-06-21T05:08:03.105Z,36.37
2017-06-21T05:09:13.470Z,36.51
2017-06-21T05:10:23.812Z,36.46
2017-06-21T05:11:33.899Z,36.33
2017-06-21T05:12:44.246Z,36.28
2017-06-21T05:13:54.282Z,36.46
2017-06-21T05:15:04.639Z,36.49
2017-06-21T05:16:14.981Z,36.63
2017-06-21T05:17:25.333Z,36.83
2017-06-21T05:18:35.732Z,36.84
2017-06-21T05:19:46.094Z,36.93
2017-06-21T05:20:55.805Z,36.8
2017-06-21T05:22:05.835Z,36.96
2017-06-21T05:23:16.193Z,37.02
2017-06-21T05:24:26.553Z,37.05
2017-06-21T05:25:36.912Z,37.17
2017-06-21T05:26:46.633Z,37.27
2017-06-21T05:27:56.675Z,37.22
2017-06-21T05:29:06.410Z,37.27
2017-06-21T05:30:16.816Z,37.3
2017-06-21T05:31:27.174Z,37.23
2017-06-21T05:32:37.525Z,37.37
2017-06-21T05:33:47.869Z,37.34
2017-06-21T05:34:58.230Z,37.46
2017-06-21T05:36:08.610Z,37.54
2017-06-21T05:37:18.650Z,37.57
2017-06-21T05:38:29.004Z,37.69
2017-06-21T05:39:39.051Z,37.75
2017-06-21T05:40:49.424Z,37.66
2017-06-21T05:41:59.830Z,37.81
2017-06-21T05:43:10.202Z,37.83
2017-06-21T05:44:20.246Z,38
2017-06-21T05:45:29.976Z,37.91
2017-06-21T05:46:40.352Z,37.84
2017-06-21T05:47:50.709Z,37.84
2017-06-21T05:49:01.049Z,37.98
2017-06-21T05:50:11.418Z,38.02
2017-06-21T05:51:21.466Z,37.99
2017-06-21T05:52:31.832Z,37.87
2017-06-21T05:53:42.191Z,37.8
2017-06-21T05:54:52.535Z,37.66
2017-06-21T05:56:02.890Z,37.56
2017-06-21T05:57:13.250Z,37.51
2017-06-21T05:58:23.600Z,37.42
2017-06-21T05:59:33.682Z,37.37
2017-06-21T06:00:44.040Z,37.31
2017-06-21T06:01:54.102Z,37.23
2017-06-21T06:03:04.458Z,37.15
2017-06-21T06:04:14.503Z,37.09
2017-06-21T06:05:24.920Z,37.08
2017-06-21T06:06:34.973Z,37.02
2017-06-21T06:07:45.020Z,36.81
2017-06-21T06:08:55.371Z,36.84
2017-06-21T06:10:05.712Z,36.67
2017-06-21T06:11:16.162Z,36.75
2017-06-21T06:12:26.536Z,36.78
2017-06-21T06:13:36.906Z,36.83
2017-06-21T06:14:47.278Z,36.78
2017-06-21T06:15:57.625Z,36.65
2017-06-21T06:17:07.672Z,36.62
2017-06-21T06:18:18.021Z,36.62
2017-06-21T06:19:28.054Z,36.44
2017-06-21T06:20:38.671Z,36.36
2017-06-21T06:21:49.019Z,36.26
2017-06-21T06:22:59.443Z,36.15
2017-06-21T06:24:09.812Z,35.61
2017-06-21T06:25:20.179Z,35.45
2017-06-21T06:26:30.574Z,34.91
2017-06-21T06:27:40.620Z,34.45
2017-06-21T06:28:50.987Z,34.06
2017-06-21T06:30:01.333Z,33.55
2017-06-21T06:31:11.695Z,33.84
2017-06-21T06:32:22.036Z,34.15
2017-06-21T06:33:32.086Z,34.37
2017-06-21T06:34:42.501Z,34.39
2017-06-21T06:35:52.846Z,34.48
2017-06-21T06:37:03.203Z,34.45
2017-06-21T06:38:13.249Z,34.4
2017-06-21T06:39:23.610Z,34.39
2017-06-21T06:40:33.968Z,33.89
2017-06-21T06:41:44.330Z,33.62
2017-06-21T06:42:54.699Z,33.71
2017-06-21T06:44:05.053Z,33.89
2017-06-21T06:45:14.770Z,33.89
2017-06-21T06:46:25.122Z,33.89
2017-06-21T06:47:35.475Z,33.87
2017-06-21T06:48:45.858Z,33.84
2017-06-21T06:49:56.209Z,33.87
2017-06-21T06:51:06.566Z,33.83
2017-06-21T06:52:16.651Z,33.73
2017-06-21T06:53:27.003Z,33.75
2017-06-21T06:54:36.420Z,33.73
2017-06-21T06:55:46.462Z,33.69
2017-06-21T06:56:56.813Z,33.58
2017-06-21T06:58:07.225Z,33.69
2017-06-21T06:59:17.578Z,33.74
2017-06-21T07:00:27.942Z,33.71
2017-06-21T07:01:38.312Z,33.71
2017-06-21T07:02:48.679Z,33.52
2017-06-21T07:03:58.721Z,33.43
2017-06-21T07:05:09.092Z,33.41
2017-06-21T07:06:19.139Z,33.48
2017-06-21T07:07:29.494Z,33.46
2017-06-21T07:08:39.536Z,33.48
2017-06-21T07:09:49.634Z,33.46
2017-06-21T07:10:59.995Z,33.48
2017-06-21T07:12:10.353Z,33.48
2017-06-21T07:13:20.718Z,33.46
2017-06-21T07:14:31.078Z,33.47
2017-06-21T07:15:41.167Z,33.4
2017-06-21T07:16:51.520Z,33.41
2017-06-21T07:18:01.878Z,33.32
2017-06-21T07:19:12.262Z,33.29
2017-06-21T07:20:22.318Z,33.17
2017-06-21T07:21:32.681Z,33.08
2017-06-21T07:22:42.735Z,33.08
2017-06-21T07:23:53.100Z,33.01
2017-06-21T07:25:03.127Z,32.94
2017-06-21T07:26:13.486Z,32.91
2017-06-21T07:27:23.902Z,32.81
2017-06-21T07:28:34.252Z,32.96
2017-06-21T07:29:44.284Z,32.84
2017-06-21T07:30:54.316Z,32.71
2017-06-21T07:32:04.370Z,32.81
2017-06-21T07:33:14.464Z,32.86
2017-06-21T07:34:24.181Z,32.75
2017-06-21T07:35:34.542Z,32.84
2017-06-21T07:36:44.593Z,32.74
2017-06-21T07:37:54.625Z,32.71
2017-06-21T07:39:04.968Z,32.67
2017-06-21T07:40:15.373Z,32.62
2017-06-21T07:41:25.104Z,32.67
2017-06-21T07:42:35.441Z,32.71
2017-06-21T07:43:45.799Z,32.69
2017-06-21T07:44:55.847Z,32.76
2017-06-21T07:46:05.898Z,32.67
2017-06-21T07:47:15.937Z,32.68
2017-06-21T07:48:25.991Z,32.71
2017-06-21T07:49:36.345Z,32.57
2017-06-21T07:50:46.711Z,32.45
2017-06-21T07:51:56.767Z,32.54
2017-06-21T07:53:06.902Z,32.49
2017-06-21T07:54:16.931Z,32.46
2017-06-21T07:55:26.969Z,32.38
2017-06-21T07:56:37.320Z,32.43
2017-06-21T07:57:47.105Z,32.42
2017-06-21T07:58:57.457Z,32.34
2017-06-21T08:00:07.503Z,32.38
2017-06-21T08:01:17.881Z,32.45
2017-06-21T08:02:28.235Z,32.52
2017-06-21T08:03:38.323Z,32.47
2017-06-21T08:04:48.683Z,32.5
2017-06-21T08:05:59.028Z,32.59
2017-06-21T08:07:08.765Z,32.62
2017-06-21T08:08:18.796Z,32.59
2017-06-21T08:09:28.833Z,32.65
2017-06-21T08:10:39.200Z,32.72
2017-06-21T08:11:49.554Z,32.64
2017-06-21T08:12:59.904Z,32.8
2017-06-21T08:14:09.957Z,32.74
2017-06-21T08:15:20.361Z,32.79
2017-06-21T08:16:30.708Z,32.84
2017-06-21T08:17:41.093Z,32.86
2017-06-21T08:18:51.438Z,32.93
2017-06-21T08:20:00.853Z,33.06
2017-06-21T08:21:10.933Z,33.21
2017-06-21T08:22:21.284Z,33.24
2017-06-21T08:23:31.627Z,33.18
2017-06-21T08:24:41.973Z,33.28
2017-06-21T08:25:52.339Z,33.4
2017-06-21T08:27:02.736Z,33.4
2017-06-21T08:28:13.088Z,33.47
2017-06-21T08:29:23.460Z,33.52
2017-06-21T08:30:33.509Z,33.56
2017-06-21T08:31:43.552Z,33.58
2017-06-21T08:32:53.946Z,33.53
2017-06-21T08:34:04.302Z,33.59
2017-06-21T08:35:14.663Z,33.66
2017-06-21T08:36:24.761Z,33.77
2017-06-21T08:37:35.110Z,33.85
2017-06-21T08:38:45.221Z,33.92
2017-06-21T08:39:55.576Z,33.97
2017-06-21T08:41:05.927Z,34.03
2017-06-21T08:42:16.282Z,34.1
2017-06-21T08:43:26.644Z,33.99
2017-06-21T08:44:36.746Z,33.99
2017-06-21T08:45:46.791Z,34.14
2017-06-21T08:46:57.149Z,34.17
2017-06-21T08:48:07.511Z,34.15
2017-06-21T08:49:17.250Z,34.11
2017-06-21T08:50:27.646Z,34.05
2017-06-21T08:51:37.997Z,34.17
2017-06-21T08:52:47.733Z,34.22
2017-06-21T08:53:58.082Z,34.22
2017-06-21T08:55:08.459Z,34.32
2017-06-21T08:56:18.873Z,34.39
2017-06-21T08:57:28.906Z,34.37
2017-06-21T08:58:39.262Z,34.4
2017-06-21T08:59:49.607Z,34.32
2017-06-21T09:00:59.984Z,34.29
2017-06-21T09:02:10.353Z,34.3
2017-06-21T09:03:20.395Z,34.33
2017-06-21T09:04:30.751Z,34.39
2017-06-21T09:05:40.843Z,34.3
2017-06-21T09:06:50.886Z,34.3
2017-06-21T09:08:01.296Z,34.32
2017-06-21T09:09:11.513Z,34.33
2017-06-21T09:10:21.882Z,34.45
2017-06-21T09:11:32.232Z,34.41
2017-06-21T09:12:42.283Z,34.41
2017-06-21T09:13:52.641Z,34.46
2017-06-21T09:15:02.730Z,34.43
2017-06-21T09:16:13.104Z,34.41
2017-06-21T09:17:23.478Z,34.33
2017-06-21T09:18:33.837Z,34.36
2017-06-21T09:19:44.235Z,34.41
2017-06-21T09:20:54.587Z,34.46
2017-06-21T09:22:04.960Z,34.36
2017-06-21T09:23:15.304Z,34.51
2017-06-21T09:24:25.657Z,34.41
2017-06-21T09:25:35.765Z,34.55
2017-06-21T09:26:45.843Z,34.52
2017-06-21T09:27:56.198Z,34.64
2017-06-21T09:29:06.564Z,34.67
2017-06-21T09:30:16.615Z,34.83
2017-06-21T09:31:27.011Z,34.87
2017-06-21T09:32:37.359Z,34.91
2017-06-21T09:33:47.743Z,35.06
2017-06-21T09:34:58.093Z,35.23
2017-06-21T09:36:08.130Z,35.26
2017-06-21T09:37:18.217Z,35.26
2017-06-21T09:38:28.588Z,35.21
2017-06-21T09:39:38.970Z,35.15
2017-06-21T09:40:49.347Z,35.26
2017-06-21T09:41:59.700Z,35.18
2017-06-21T09:43:10.132Z,35.21
2017-06-21T09:44:20.502Z,35.21
2017-06-21T09:45:30.530Z,35.28
2017-06-21T09:46:40.887Z,35.26
2017-06-21T09:47:50.939Z,35.33
2017-06-21T09:49:01.348Z,35.24
2017-06-21T09:50:11.710Z,35.27
2017-06-21T09:51:22.062Z,35.23
2017-06-21T09:52:32.416Z,35.18
2017-06-21T09:53:42.769Z,35.24
2017-06-21T09:54:53.124Z,35.28
2017-06-21T09:56:03.489Z,35.23
2017-06-21T09:57:13.856Z,35.21
2017-06-21T09:58:24.215Z,35.24
2017-06-21T09:59:34.563Z,35.33
2017-06-21T10:00:44.654Z,35.28
2017-06-21T10:01:54.999Z,35.28
2017-06-21T10:03:05.043Z,35.39
2017-06-21T10:04:15.399Z,35.45
2017-06-21T10:05:25.763Z,35.58
2017-06-21T10:06:36.115Z,35.64
2017-06-21T10:07:46.465Z,35.69
2017-06-21T10:08:56.809Z,35.72
2017-06-21T10:10:07.183Z,35.86
2017-06-21T10:11:17.548Z,35.9
2017-06-21T10:12:27.591Z,36.12
2017-06-21T10:13:37.630Z,36.08
2017-06-21T10:14:47.974Z,36.12
2017-06-21T10:15:58.029Z,36.06
2017-06-21T10:17:08.400Z,36.09
2017-06-21T10:18:18.799Z,36.06
2017-06-21T10:19:29.066Z,36.18
2017-06-21T10:20:39.421Z,36.28
2017-06-21T10:21:49.792Z,36.33
2017-06-21T10:23:00.161Z,36.43
2017-06-21T10:24:10.584Z,36.58
2017-06-21T10:25:20.960Z,36.67
2017-06-21T10:26:31.328Z,36.9
2017-06-21T10:27:41.686Z,36.9
2017-06-21T10:28:51.727Z,36.99
2017-06-21T10:30:02.165Z,36.89
2017-06-21T10:31:12.514Z,36.99
2017-06-21T10:32:22.865Z,37
2017-06-21T10:33:32.597Z,37.02
2017-06-21T10:34:42.353Z,36.43
2017-06-21T10:35:52.464Z,36.39
2017-06-21T10:37:02.542Z,36.33
2017-06-21T10:38:12.925Z,36.4
2017-06-21T10:39:23.282Z,36.47
2017-06-21T10:40:33.337Z,36.51
2017-06-21T10:41:43.093Z,36.51
2017-06-21T10:42:53.457Z,36.52
2017-06-21T10:44:03.828Z,36.63
2017-06-21T10:45:14.179Z,36.58
2017-06-21T10:46:24.226Z,36.7
2017-06-21T10:47:34.642Z,36.7
2017-06-21T10:48:44.994Z,36.67
2017-06-21T10:49:56.032Z,36.75
2017-06-21T10:51:08.892Z,36.75
2017-06-21T10:52:20.943Z,36.7
2017-06-21T10:53:32.537Z,36.86
2017-06-21T10:54:42.906Z,37
2017-06-21T10:55:53.275Z,37.15
2017-06-21T10:57:03.623Z,37.22
2017-06-21T10:58:13.994Z,37.27
2017-06-21T10:59:24.045Z,37.44
2017-06-21T11:00:34.099Z,37.17
2017-06-21T11:01:44.475Z,36.81
2017-06-21T11:02:54.203Z,37.09
2017-06-21T11:04:04.572Z,37.27
2017-06-21T11:05:14.632Z,37.07
2017-06-21T11:06:24.982Z,37.33
2017-06-21T11:07:34.732Z,37.34
2017-06-21T11:08:45.100Z,37.48
2017-06-21T11:09:55.482Z,37.56
2017-06-21T11:11:05.894Z,37.59
2017-06-21T11:12:16.250Z,37.66
2017-06-21T11:13:26.604Z,37.81
2017-06-21T11:14:36.972Z,37.75
2017-06-21T11:15:47.339Z,38
2017-06-21T11:16:57.757Z,38.18
2017-06-21T11:18:08.134Z,38.2
2017-06-21T11:19:18.503Z,38.09
2017-06-21T11:20:28.554Z,37.94
2017-06-21T11:21:38.614Z,37.93
2017-06-21T11:22:49.001Z,37.96
2017-06-21T11:23:59.388Z,38.1
2017-06-21T11:25:09.436Z,38.1
2017-06-21T11:26:19.501Z,38.17
2017-06-21T11:27:29.874Z,38.31
2017-06-21T11:28:40.296Z,38.13
2017-06-21T11:29:50.652Z,37.81
2017-06-21T11:31:01.009Z,37.84
2017-06-21T11:32:11.389Z,37.61
2017-06-21T11:33:21.440Z,37.65
2017-06-21T11:34:31.835Z,37.66
2017-06-21T11:35:42.214Z,37.72
2017-06-21T11:36:52.591Z,37.94
2017-06-21T11:38:02.960Z,37.81
2017-06-21T11:39:13.023Z,37.74
2017-06-21T11:40:23.122Z,37.84
2017-06-21T11:41:32.857Z,37.94
2017-06-21T11:42:43.232Z,38.03
2017-06-21T11:43:53.604Z,37.84
2017-06-21T11:45:03.984Z,37.98
2017-06-21T11:46:14.400Z,37.99
2017-06-21T11:47:24.761Z,38.09
2017-06-21T11:48:35.131Z,38.15
2017-06-21T11:49:45.180Z,38.06
2017-06-21T11:50:55.557Z,38.2
2017-06-21T11:52:05.603Z,38.33
2017-06-21T11:53:15.978Z,38.42
2017-06-21T11:54:26.348Z,38.42
2017-06-21T11:55:36.728Z,38.52
2017-06-21T11:56:46.817Z,38.55
2017-06-21T11:57:57.233Z,38.59
2017-06-21T11:59:07.301Z,38.65
2017-06-21T12:00:17.690Z,38.74
2017-06-21T12:01:27.747Z,38.76
2017-06-21T12:02:37.816Z,38.71
2017-06-21T12:03:47.924Z,38.74
2017-06-21T12:04:57.990Z,38.74
2017-06-21T12:06:08.056Z,38.81
2017-06-21T12:07:18.121Z,38.84
2017-06-21T12:08:28.497Z,38.93
2017-06-21T12:09:39.416Z,39.06
2017-06-21T12:10:49.795Z,39.19
2017-06-21T12:12:00.176Z,39.28
2017-06-21T12:13:10.228Z,39.46
2017-06-21T12:14:20.582Z,39.54
2017-06-21T12:15:31.007Z,39.64
2017-06-21T12:16:41.391Z,39.83
2017-06-21T12:17:51.777Z,39.99
2017-06-21T12:19:02.149Z,40.1
2017-06-21T12:20:12.539Z,40.3
2017-06-21T12:21:22.890Z,40.43
2017-06-21T12:22:32.967Z,40.5
2017-06-21T12:23:43.342Z,40.5
2017-06-21T12:24:53.725Z,40.25
2017-06-21T12:26:04.088Z,40.15
2017-06-21T12:27:14.205Z,39.91
2017-06-21T12:28:24.566Z,39.72
2017-06-21T12:29:34.660Z,39.4
2017-06-21T12:30:45.026Z,39.04
2017-06-21T12:31:55.406Z,38.76
2017-06-21T12:33:05.845Z,38.44
2017-06-21T12:34:16.231Z,38.21
2017-06-21T12:35:26.614Z,37.99
2017-06-21T12:36:36.976Z,38.02
2017-06-21T12:37:47.029Z,38.13
2017-06-21T12:38:57.395Z,38.37
2017-06-21T12:40:07.509Z,38.77
2017-06-21T12:41:17.887Z,39.41
2017-06-21T12:42:27.649Z,39.94
2017-06-21T12:43:37.070Z,40.44
2017-06-21T12:44:47.440Z,40.67
2017-06-21T12:45:57.800Z,40.62
2017-06-21T12:47:07.870Z,40.28
2017-06-21T12:48:18.253Z,39.96
2017-06-21T12:49:28.633Z,39.99
2017-06-21T12:50:39.050Z,39.78
2017-06-21T12:51:49.103Z,39.54
2017-06-21T12:52:59.468Z,39.35
2017-06-21T12:54:09.865Z,39.13
2017-06-21T12:55:20.248Z,38.84
2017-06-21T12:56:30.677Z,38.73
2017-06-21T12:57:41.059Z,38.62
2017-06-21T12:58:51.445Z,38.44
2017-06-21T13:00:01.823Z,38.33
2017-06-21T13:01:12.190Z,38.18
2017-06-21T13:02:22.334Z,38.03
2017-06-21T13:03:32.405Z,37.83
2017-06-21T13:04:42.764Z,37.74
2017-06-21T13:05:53.154Z,37.66
2017-06-21T13:07:03.191Z,37.66
2017-06-21T13:08:13.615Z,37.72
2017-06-21T13:09:23.991Z,37.66
2017-06-21T13:10:34.044Z,37.66
2017-06-21T13:11:44.423Z,37.8
2017-06-21T13:12:54.795Z,37.9
2017-06-21T13:14:04.587Z,38
2017-06-21T13:15:14.965Z,38.08
2017-06-21T13:16:25.334Z,38.15
2017-06-21T13:17:35.735Z,38.27
2017-06-21T13:18:45.777Z,38.22
2017-06-21T13:19:56.187Z,38.15
2017-06-21T13:21:06.533Z,37.99
2017-06-21T13:22:16.986Z,37.83
2017-06-21T13:23:27.081Z,37.68
2017-06-21T13:24:37.461Z,37.53
2017-06-21T13:25:47.897Z,37.37
2017-06-21T13:26:58.267Z,37.37
2017-06-21T13:28:08.822Z,37.18
2017-06-21T13:29:18.897Z,37.08
2017-06-21T13:30:29.281Z,36.86
2017-06-21T13:31:39.702Z,36.73
2017-06-21T13:32:49.754Z,36.68
2017-06-21T13:34:00.133Z,36.58
2017-06-21T13:35:10.205Z,36.53
2017-06-21T13:36:20.586Z,36.49
2017-06-21T13:37:31.017Z,36.62
2017-06-21T13:38:41.076Z,36.63
2017-06-21T13:39:51.158Z,36.73
2017-06-21T13:41:01.518Z,36.8
2017-06-21T13:42:11.923Z,36.78
2017-06-21T13:43:22.027Z,36.97
2017-06-21T13:44:32.381Z,37.17
2017-06-21T13:45:42.753Z,37.27
2017-06-21T13:46:53.016Z,37.19
2017-06-21T13:48:03.397Z,37.31
2017-06-21T13:49:13.193Z,37.33
2017-06-21T13:50:23.584Z,37.26
2017-06-21T13:51:33.657Z,37.34
2017-06-21T13:52:43.706Z,37.27
2017-06-21T13:53:53.767Z,37.29
2017-06-21T13:55:04.225Z,37.18
2017-06-21T13:56:14.600Z,37.15
2017-06-21T13:57:24.964Z,37.15
2017-06-21T13:58:35.317Z,37.22
2017-06-21T13:59:45.689Z,37.24
2017-06-21T14:00:55.463Z,37.37
2017-06-21T14:02:05.830Z,37.34
2017-06-21T14:03:16.230Z,37.24
2017-06-21T14:04:26.596Z,37.27
2017-06-21T14:05:36.982Z,37.19
2017-06-21T14:06:47.406Z,37.17
2017-06-21T14:07:57.777Z,37.17
2017-06-21T14:09:08.154Z,37.22
2017-06-21T14:10:18.221Z,37.29
2017-06-21T14:11:28.612Z,37.45
2017-06-21T14:12:38.997Z,37.57
2017-06-21T14:13:49.369Z,37.62
2017-06-21T14:14:59.741Z,37.74
2017-06-21T14:16:09.487Z,37.9
2017-06-21T14:17:19.575Z,37.79
2017-06-21T14:18:29.965Z,37.79
2017-06-21T14:19:40.341Z,37.72
2017-06-21T14:20:50.723Z,37.76
2017-06-21T14:22:01.085Z,37.57
2017-06-21T14:23:11.150Z,37.42
2017-06-21T14:24:21.261Z,37.23
2017-06-21T14:25:31.638Z,37.29
2017-06-21T14:26:41.721Z,37.39
2017-06-21T14:27:52.119Z,37.51
2017-06-21T14:29:02.527Z,37.71
2017-06-21T14:30:12.972Z,37.91
2017-06-21T14:31:23.343Z,37.93
2017-06-21T14:32:33.402Z,37.96
2017-06-21T14:33:43.127Z,38.02
2017-06-21T14:34:53.181Z,38.03
2017-06-21T14:36:03.320Z,37.91
2017-06-21T14:37:13.706Z,37.84
2017-06-21T14:38:24.090Z,37.65
2017-06-21T14:39:34.451Z,37.61
2017-06-21T14:40:44.503Z,37.36
2017-06-21T14:41:54.910Z,37.27
2017-06-21T14:43:05.290Z,37.26
2017-06-21T14:44:15.046Z,36.88
2017-06-21T14:45:25.435Z,36.7
2017-06-21T14:46:35.563Z,36.78
2017-06-21T14:47:45.676Z,36.62
2017-06-21T14:48:55.749Z,36.7
2017-06-21T14:50:06.153Z,36.65
2017-06-21T14:51:16.206Z,36.59
2017-06-21T14:52:26.582Z,36.59
2017-06-21T14:53:36.696Z,36.51
2017-06-21T14:54:47.101Z,36.55
2017-06-21T14:55:57.149Z,36.63
2017-06-21T14:57:07.201Z,36.71
2017-06-21T14:58:17.585Z,36.74
2017-06-21T14:59:28.025Z,36.78
2017-06-21T15:00:38.097Z,36.68
2017-06-21T15:01:48.483Z,36.68
2017-06-21T15:02:58.842Z,36.58
2017-06-21T15:04:09.236Z,36.39
2017-06-21T15:05:19.654Z,36.32
2017-06-21T15:06:30.025Z,36.19
2017-06-21T15:07:40.080Z,36.14
2017-06-21T15:08:50.124Z,36.06
2017-06-21T15:10:00.491Z,35.95
2017-06-21T15:11:10.920Z,35.89
2017-06-21T15:12:21.287Z,35.82
2017-06-21T15:13:31.666Z,35.74
2017-06-21T15:14:41.423Z,35.64
2017-06-21T15:15:51.811Z,35.65
2017-06-21T15:17:02.236Z,35.69
2017-06-21T15:18:12.636Z,35.74
2017-06-21T15:19:22.717Z,35.74
2017-06-21T15:20:33.113Z,35.69
2017-06-21T15:21:43.728Z,35.65
2017-06-21T15:22:53.844Z,35.52
2017-06-21T15:24:04.211Z,35.55
2017-06-21T15:25:14.592Z,35.45
2017-06-21T15:26:24.959Z,35.47
2017-06-21T15:27:35.343Z,35.46
2017-06-21T15:28:45.769Z,35.45
2017-06-21T15:29:56.145Z,35.31
2017-06-21T15:31:06.570Z,35.24
2017-06-21T15:32:16.941Z,35.18
2017-06-21T15:33:27.316Z,35.05
2017-06-21T15:34:37.744Z,34.93
2017-06-21T15:35:48.105Z,34.87
2017-06-21T15:36:57.841Z,34.75
2017-06-21T15:38:08.213Z,34.72
2017-06-21T15:39:18.571Z,34.64